sensor_id;sensor_type;location;lat;lon;timestamp;P1;durP1;ratioP1;P2;durP2;ratioP2
22549;SDS011;11441;57.164;-2.120;2023-03-17T00:00:59;4.95;;;4.55;;
22549;SDS011;11441;57.164;-2.120;2023-03-17T00:03:28;7.55;;;5.65;;
22549;SDS011;11441;57.164;-2.120;2023-03-17T00:06:00;6.15;;;5.53;;
22549;SDS011;11441;57.164;-2.120;2023-03-17T00:08:32;6.32;;;5.35;;
22549;SDS011;11441;57.164;-2.120;2023-03-17T00:11:01;6.57;;;5.38;;
22549;SDS011;11441;57.164;-2.120;2023-03-17T00:13:28;5.50;;;5.00;;
22549;SDS011;11441;57.164;-2.120;2023-03-17T00:15:59;8.20;;;6.13;;
22549;SDS011;11441;57.164;-2.120;2023-03-17T00:18:29;5.47;;;4.93;;
22549;SDS011;11441;57.164;-2.120;2023-03-17T00:20:58;7.10;;;5.35;;
22549;SDS011;11441;57.164;-2.120;2023-03-17T00:23:25;5.82;;;5.25;;
22549;SDS011;11441;57.164;-2.120;2023-03-17T00:26:10;5.93;;;5.35;;
22549;SDS011;11441;57.164;-2.120;2023-03-17T00:31:24;4.93;;;3.95;;
22549;SDS011;11441;57.164;-2.120;2023-03-17T00:33:53;5.07;;;4.53;;
22549;SDS011;11441;57.164;-2.120;2023-03-17T00:36:22;6.25;;;5.32;;
22549;SDS011;11441;57.164;-2.120;2023-03-17T00:38:51;6.50;;;5.32;;
22549;SDS011;11441;57.164;-2.120;2023-03-17T00:41:18;7.28;;;4.97;;
22549;SDS011;11441;57.164;-2.120;2023-03-17T00:43:45;5.15;;;4.55;;
22549;SDS011;11441;57.164;-2.120;2023-03-17T00:46:28;5.28;;;4.28;;
22549;SDS011;11441;57.164;-2.120;2023-03-17T00:49:02;5.38;;;4.70;;
22549;SDS011;11441;57.164;-2.120;2023-03-17T00:51:38;4.75;;;4.35;;
22549;SDS011;11441;57.164;-2.120;2023-03-17T00:54:05;4.80;;;4.28;;
22549;SDS011;11441;57.164;-2.120;2023-03-17T00:56:32;5.32;;;3.45;;
22549;SDS011;11441;57.164;-2.120;2023-03-17T00:58:59;4.68;;;3.15;;
22549;SDS011;11441;57.164;-2.120;2023-03-17T01:01:26;2.38;;;2.17;;
22549;SDS011;11441;57.164;-2.120;2023-03-17T01:03:53;3.35;;;2.58;;
22549;SDS011;11441;57.164;-2.120;2023-03-17T01:06:19;3.13;;;2.33;;
22549;SDS011;11441;57.164;-2.120;2023-03-17T01:08:46;2.95;;;1.90;;
22549;SDS011;11441;57.164;-2.120;2023-03-17T01:11:32;3.20;;;2.10;;
22549;SDS011;11441;57.164;-2.120;2023-03-17T01:16:44;2.85;;;1.10;;
22549;SDS011;11441;57.164;-2.120;2023-03-17T01:21:58;2.75;;;1.20;;
22549;SDS011;11441;57.164;-2.120;2023-03-17T01:24:25;4.55;;;0.98;;
22549;SDS011;11441;57.164;-2.120;2023-03-17T01:26:52;1.63;;;0.70;;
22549;SDS011;11441;57.164;-2.120;2023-03-17T01:29:19;2.33;;;1.15;;
22549;SDS011;11441;57.164;-2.120;2023-03-17T01:31:47;3.65;;;0.90;;
22549;SDS011;11441;57.164;-2.120;2023-03-17T01:34:13;1.65;;;0.50;;
22549;SDS011;11441;57.164;-2.120;2023-03-17T01:36:59;2.75;;;0.70;;
22549;SDS011;11441;57.164;-2.120;2023-03-17T01:39:26;3.45;;;1.00;;
22549;SDS011;11441;57.164;-2.120;2023-03-17T01:41:53;2.83;;;0.90;;
22549;SDS011;11441;57.164;-2.120;2023-03-17T01:44:22;1.50;;;0.70;;
22549;SDS011;11441;57.164;-2.120;2023-03-17T01:46:51;2.58;;;0.63;;
22549;SDS011;11441;57.164;-2.120;2023-03-17T01:52:01;1.08;;;0.52;;
22549;SDS011;11441;57.164;-2.120;2023-03-17T01:54:43;1.27;;;0.50;;
22549;SDS011;11441;57.164;-2.120;2023-03-17T01:59:57;2.15;;;0.65;;
22549;SDS011;11441;57.164;-2.120;2023-03-17T02:02:44;0.80;;;0.50;;
22549;SDS011;11441;57.164;-2.120;2023-03-17T02:05:14;2.45;;;0.80;;
22549;SDS011;11441;57.164;-2.120;2023-03-17T02:07:43;1.58;;;0.60;;
22549;SDS011;11441;57.164;-2.120;2023-03-17T02:10:10;3.38;;;0.70;;
22549;SDS011;11441;57.164;-2.120;2023-03-17T02:12:40;1.77;;;0.60;;
22549;SDS011;11441;57.164;-2.120;2023-03-17T02:15:40;0.77;;;0.55;;
22549;SDS011;11441;57.164;-2.120;2023-03-17T02:18:10;3.53;;;1.27;;
22549;SDS011;11441;57.164;-2.120;2023-03-17T02:23:04;0.93;;;0.68;;
22549;SDS011;11441;57.164;-2.120;2023-03-17T02:25:33;1.63;;;0.98;;
22549;SDS011;11441;57.164;-2.120;2023-03-17T02:28:10;1.65;;;0.80;;
22549;SDS011;11441;57.164;-2.120;2023-03-17T02:30:41;3.58;;;0.90;;
22549;SDS011;11441;57.164;-2.120;2023-03-17T02:33:08;3.38;;;1.00;;
22549;SDS011;11441;57.164;-2.120;2023-03-17T02:35:37;3.97;;;1.15;;
22549;SDS011;11441;57.164;-2.120;2023-03-17T02:38:06;6.82;;;0.90;;
22549;SDS011;11441;57.164;-2.120;2023-03-17T02:40:33;3.58;;;0.80;;
22549;SDS011;11441;57.164;-2.120;2023-03-17T02:43:00;1.45;;;0.68;;
22549;SDS011;11441;57.164;-2.120;2023-03-17T02:45:27;1.70;;;0.80;;
22549;SDS011;11441;57.164;-2.120;2023-03-17T02:47:54;2.78;;;0.80;;
22549;SDS011;11441;57.164;-2.120;2023-03-17T02:50:23;2.55;;;0.52;;
22549;SDS011;11441;57.164;-2.120;2023-03-17T02:52:53;0.75;;;0.50;;
22549;SDS011;11441;57.164;-2.120;2023-03-17T02:55:20;2.17;;;0.90;;
22549;SDS011;11441;57.164;-2.120;2023-03-17T02:57:46;2.15;;;0.70;;
22549;SDS011;11441;57.164;-2.120;2023-03-17T03:00:31;1.17;;;0.50;;
22549;SDS011;11441;57.164;-2.120;2023-03-17T03:02:59;2.13;;;0.75;;
22549;SDS011;11441;57.164;-2.120;2023-03-17T03:05:26;1.90;;;0.45;;
22549;SDS011;11441;57.164;-2.120;2023-03-17T03:07:54;1.08;;;0.77;;
22549;SDS011;11441;57.164;-2.120;2023-03-17T03:10:21;1.33;;;0.55;;
22549;SDS011;11441;57.164;-2.120;2023-03-17T03:12:47;3.83;;;0.95;;
22549;SDS011;11441;57.164;-2.120;2023-03-17T03:15:14;2.33;;;0.70;;
22549;SDS011;11441;57.164;-2.120;2023-03-17T03:17:41;1.00;;;0.40;;
22549;SDS011;11441;57.164;-2.120;2023-03-17T03:20:08;2.28;;;0.60;;
22549;SDS011;11441;57.164;-2.120;2023-03-17T03:22:36;1.17;;;0.32;;
22549;SDS011;11441;57.164;-2.120;2023-03-17T03:25:04;3.58;;;1.05;;
22549;SDS011;11441;57.164;-2.120;2023-03-17T03:27:33;1.02;;;0.52;;
22549;SDS011;11441;57.164;-2.120;2023-03-17T03:30:00;1.08;;;0.38;;
22549;SDS011;11441;57.164;-2.120;2023-03-17T03:32:28;1.73;;;0.60;;
22549;SDS011;11441;57.164;-2.120;2023-03-17T03:34:55;1.23;;;0.60;;
22549;SDS011;11441;57.164;-2.120;2023-03-17T03:37:22;2.38;;;0.32;;
22549;SDS011;11441;57.164;-2.120;2023-03-17T03:39:48;2.20;;;0.60;;
22549;SDS011;11441;57.164;-2.120;2023-03-17T03:42:16;0.57;;;0.45;;
22549;SDS011;11441;57.164;-2.120;2023-03-17T03:44:43;1.85;;;0.57;;
22549;SDS011;11441;57.164;-2.120;2023-03-17T03:47:10;2.15;;;0.40;;
22549;SDS011;11441;57.164;-2.120;2023-03-17T03:49:37;1.75;;;0.65;;
22549;SDS011;11441;57.164;-2.120;2023-03-17T03:52:04;1.55;;;0.75;;
22549;SDS011;11441;57.164;-2.120;2023-03-17T03:54:31;1.55;;;0.40;;
22549;SDS011;11441;57.164;-2.120;2023-03-17T03:56:58;1.30;;;0.50;;
22549;SDS011;11441;57.164;-2.120;2023-03-17T03:59:25;0.73;;;0.70;;
22549;SDS011;11441;57.164;-2.120;2023-03-17T04:01:52;0.50;;;0.40;;
22549;SDS011;11441;57.164;-2.120;2023-03-17T04:04:19;1.75;;;0.52;;
22549;SDS011;11441;57.164;-2.120;2023-03-17T04:06:45;2.55;;;0.85;;
22549;SDS011;11441;57.164;-2.120;2023-03-17T04:09:12;2.10;;;0.50;;
22549;SDS011;11441;57.164;-2.120;2023-03-17T04:11:39;1.83;;;0.63;;
22549;SDS011;11441;57.164;-2.120;2023-03-17T04:14:06;1.23;;;0.43;;
22549;SDS011;11441;57.164;-2.120;2023-03-17T04:16:33;1.80;;;0.63;;
22549;SDS011;11441;57.164;-2.120;2023-03-17T04:19:00;0.45;;;0.40;;
22549;SDS011;11441;57.164;-2.120;2023-03-17T04:21:27;1.38;;;0.70;;
22549;SDS011;11441;57.164;-2.120;2023-03-17T04:23:54;2.97;;;0.65;;
22549;SDS011;11441;57.164;-2.120;2023-03-17T04:26:21;2.25;;;0.65;;
22549;SDS011;11441;57.164;-2.120;2023-03-17T04:28:48;1.92;;;0.68;;
22549;SDS011;11441;57.164;-2.120;2023-03-17T04:31:15;2.35;;;0.55;;
22549;SDS011;11441;57.164;-2.120;2023-03-17T04:33:42;0.98;;;0.35;;
22549;SDS011;11441;57.164;-2.120;2023-03-17T04:36:13;0.98;;;0.40;;
22549;SDS011;11441;57.164;-2.120;2023-03-17T04:38:45;1.85;;;0.45;;
22549;SDS011;11441;57.164;-2.120;2023-03-17T04:41:12;1.40;;;0.32;;
22549;SDS011;11441;57.164;-2.120;2023-03-17T04:43:39;0.60;;;0.40;;
22549;SDS011;11441;57.164;-2.120;2023-03-17T04:46:07;0.65;;;0.50;;
22549;SDS011;11441;57.164;-2.120;2023-03-17T04:48:34;0.93;;;0.40;;
22549;SDS011;11441;57.164;-2.120;2023-03-17T04:51:02;1.45;;;0.60;;
22549;SDS011;11441;57.164;-2.120;2023-03-17T04:53:29;0.52;;;0.35;;
22549;SDS011;11441;57.164;-2.120;2023-03-17T04:55:56;0.43;;;0.38;;
22549;SDS011;11441;57.164;-2.120;2023-03-17T04:58:23;0.30;;;0.30;;
22549;SDS011;11441;57.164;-2.120;2023-03-17T05:00:56;0.35;;;0.20;;
22549;SDS011;11441;57.164;-2.120;2023-03-17T05:03:23;1.77;;;0.30;;
22549;SDS011;11441;57.164;-2.120;2023-03-17T05:05:53;2.10;;;0.45;;
22549;SDS011;11441;57.164;-2.120;2023-03-17T05:08:20;0.68;;;0.20;;
22549;SDS011;11441;57.164;-2.120;2023-03-17T05:11:05;1.60;;;0.38;;
22549;SDS011;11441;57.164;-2.120;2023-03-17T05:13:32;1.65;;;0.47;;
22549;SDS011;11441;57.164;-2.120;2023-03-17T05:15:59;0.95;;;0.40;;
22549;SDS011;11441;57.164;-2.120;2023-03-17T05:18:44;0.82;;;0.40;;
22549;SDS011;11441;57.164;-2.120;2023-03-17T05:21:10;1.85;;;0.30;;
22549;SDS011;11441;57.164;-2.120;2023-03-17T05:23:37;0.68;;;0.40;;
22549;SDS011;11441;57.164;-2.120;2023-03-17T05:28:51;0.30;;;0.30;;
22549;SDS011;11441;57.164;-2.120;2023-03-17T05:31:18;1.40;;;0.40;;
22549;SDS011;11441;57.164;-2.120;2023-03-17T05:33:45;1.77;;;0.30;;
22549;SDS011;11441;57.164;-2.120;2023-03-17T05:36:14;0.65;;;0.25;;
22549;SDS011;11441;57.164;-2.120;2023-03-17T05:39:00;1.05;;;0.60;;
22549;SDS011;11441;57.164;-2.120;2023-03-17T05:41:27;1.55;;;0.30;;
22549;SDS011;11441;57.164;-2.120;2023-03-17T05:43:53;0.40;;;0.40;;
22549;SDS011;11441;57.164;-2.120;2023-03-17T05:46:21;1.10;;;0.60;;
22549;SDS011;11441;57.164;-2.120;2023-03-17T05:48:48;0.43;;;0.22;;
22549;SDS011;11441;57.164;-2.120;2023-03-17T05:51:15;0.88;;;0.32;;
22549;SDS011;11441;57.164;-2.120;2023-03-17T05:53:42;1.05;;;0.30;;
22549;SDS011;11441;57.164;-2.120;2023-03-17T05:56:09;0.20;;;0.20;;
22549;SDS011;11441;57.164;-2.120;2023-03-17T05:58:36;0.30;;;0.28;;
22549;SDS011;11441;57.164;-2.120;2023-03-17T06:01:02;0.22;;;0.22;;
22549;SDS011;11441;57.164;-2.120;2023-03-17T06:03:29;0.90;;;0.20;;
22549;SDS011;11441;57.164;-2.120;2023-03-17T06:05:56;0.75;;;0.40;;
22549;SDS011;11441;57.164;-2.120;2023-03-17T06:11:09;2.80;;;0.30;;
22549;SDS011;11441;57.164;-2.120;2023-03-17T06:13:36;0.35;;;0.20;;
22549;SDS011;11441;57.164;-2.120;2023-03-17T06:16:02;1.67;;;0.10;;
22549;SDS011;11441;57.164;-2.120;2023-03-17T06:18:29;0.35;;;0.30;;
22549;SDS011;11441;57.164;-2.120;2023-03-17T06:21:14;1.35;;;0.20;;
22549;SDS011;11441;57.164;-2.120;2023-03-17T06:23:42;0.50;;;0.40;;
22549;SDS011;11441;57.164;-2.120;2023-03-17T06:26:27;1.08;;;0.38;;
22549;SDS011;11441;57.164;-2.120;2023-03-17T06:29:13;1.58;;;0.40;;
22549;SDS011;11441;57.164;-2.120;2023-03-17T06:31:40;0.20;;;0.20;;
22549;SDS011;11441;57.164;-2.120;2023-03-17T06:34:07;1.23;;;0.43;;
22549;SDS011;11441;57.164;-2.120;2023-03-17T06:36:34;0.35;;;0.13;;
22549;SDS011;11441;57.164;-2.120;2023-03-17T06:39:38;0.32;;;0.25;;
22549;SDS011;11441;57.164;-2.120;2023-03-17T06:42:07;1.80;;;0.20;;
22549;SDS011;11441;57.164;-2.120;2023-03-17T06:44:34;0.68;;;0.20;;
22549;SDS011;11441;57.164;-2.120;2023-03-17T06:47:20;0.60;;;0.20;;
22549;SDS011;11441;57.164;-2.120;2023-03-17T06:49:50;0.45;;;0.20;;
22549;SDS011;11441;57.164;-2.120;2023-03-17T06:52:16;0.95;;;0.30;;
22549;SDS011;11441;57.164;-2.120;2023-03-17T06:54:43;0.52;;;0.30;;
22549;SDS011;11441;57.164;-2.120;2023-03-17T06:57:10;0.30;;;0.30;;
22549;SDS011;11441;57.164;-2.120;2023-03-17T06:59:37;0.55;;;0.30;;
22549;SDS011;11441;57.164;-2.120;2023-03-17T07:02:04;0.10;;;0.10;;
22549;SDS011;11441;57.164;-2.120;2023-03-17T07:04:31;0.13;;;0.13;;
22549;SDS011;11441;57.164;-2.120;2023-03-17T07:06:58;0.28;;;0.10;;
22549;SDS011;11441;57.164;-2.120;2023-03-17T07:09:25;0.95;;;0.10;;
22549;SDS011;11441;57.164;-2.120;2023-03-17T07:11:52;0.52;;;0.20;;
22549;SDS011;11441;57.164;-2.120;2023-03-17T07:14:19;0.20;;;0.20;;
22549;SDS011;11441;57.164;-2.120;2023-03-17T07:16:46;0.20;;;0.10;;
22549;SDS011;11441;57.164;-2.120;2023-03-17T07:19:13;0.17;;;0.10;;
22549;SDS011;11441;57.164;-2.120;2023-03-17T07:21:40;1.38;;;0.20;;
22549;SDS011;11441;57.164;-2.120;2023-03-17T07:24:09;0.10;;;0.10;;
22549;SDS011;11441;57.164;-2.120;2023-03-17T07:29:22;1.25;;;0.15;;
22549;SDS011;11441;57.164;-2.120;2023-03-17T07:31:49;0.32;;;0.32;;
22549;SDS011;11441;57.164;-2.120;2023-03-17T07:34:16;0.20;;;0.20;;
22549;SDS011;11441;57.164;-2.120;2023-03-17T07:36:43;0.35;;;0.20;;
22549;SDS011;11441;57.164;-2.120;2023-03-17T07:39:10;0.93;;;0.20;;
22549;SDS011;11441;57.164;-2.120;2023-03-17T07:41:37;0.98;;;0.35;;
22549;SDS011;11441;57.164;-2.120;2023-03-17T07:44:08;0.88;;;0.22;;
22549;SDS011;11441;57.164;-2.120;2023-03-17T07:46:55;0.68;;;0.22;;
22549;SDS011;11441;57.164;-2.120;2023-03-17T07:49:41;1.15;;;0.20;;
22549;SDS011;11441;57.164;-2.120;2023-03-17T07:52:08;0.20;;;0.20;;
22549;SDS011;11441;57.164;-2.120;2023-03-17T07:54:36;0.88;;;0.40;;
22549;SDS011;11441;57.164;-2.120;2023-03-17T07:57:08;0.25;;;0.20;;
22549;SDS011;11441;57.164;-2.120;2023-03-17T07:59:35;0.50;;;0.20;;
22549;SDS011;11441;57.164;-2.120;2023-03-17T08:02:03;0.20;;;0.20;;
22549;SDS011;11441;57.164;-2.120;2023-03-17T08:04:30;0.38;;;0.20;;
22549;SDS011;11441;57.164;-2.120;2023-03-17T08:06:57;0.55;;;0.20;;
22549;SDS011;11441;57.164;-2.120;2023-03-17T08:09:24;0.63;;;0.15;;
22549;SDS011;11441;57.164;-2.120;2023-03-17T08:11:51;0.30;;;0.30;;
22549;SDS011;11441;57.164;-2.120;2023-03-17T08:14:18;0.50;;;0.20;;
22549;SDS011;11441;57.164;-2.120;2023-03-17T08:16:45;0.68;;;0.20;;
22549;SDS011;11441;57.164;-2.120;2023-03-17T08:19:12;1.77;;;0.10;;
22549;SDS011;11441;57.164;-2.120;2023-03-17T08:21:39;1.30;;;0.20;;
22549;SDS011;11441;57.164;-2.120;2023-03-17T08:24:06;0.68;;;0.20;;
22549;SDS011;11441;57.164;-2.120;2023-03-17T08:26:33;0.35;;;0.15;;
22549;SDS011;11441;57.164;-2.120;2023-03-17T08:29:00;0.85;;;0.10;;
22549;SDS011;11441;57.164;-2.120;2023-03-17T08:31:27;1.00;;;0.10;;
22549;SDS011;11441;57.164;-2.120;2023-03-17T08:33:54;1.20;;;0.40;;
22549;SDS011;11441;57.164;-2.120;2023-03-17T08:39:08;2.67;;;0.20;;
22549;SDS011;11441;57.164;-2.120;2023-03-17T08:41:54;0.90;;;0.30;;
22549;SDS011;11441;57.164;-2.120;2023-03-17T08:44:22;0.98;;;0.30;;
22549;SDS011;11441;57.164;-2.120;2023-03-17T08:46:49;1.13;;;0.47;;
22549;SDS011;11441;57.164;-2.120;2023-03-17T08:49:16;0.40;;;0.40;;
22549;SDS011;11441;57.164;-2.120;2023-03-17T08:51:43;3.25;;;0.32;;
22549;SDS011;11441;57.164;-2.120;2023-03-17T08:54:10;0.65;;;0.40;;
22549;SDS011;11441;57.164;-2.120;2023-03-17T08:56:38;1.02;;;0.28;;
22549;SDS011;11441;57.164;-2.120;2023-03-17T08:59:05;2.00;;;0.47;;
22549;SDS011;11441;57.164;-2.120;2023-03-17T09:01:33;2.28;;;0.25;;
22549;SDS011;11441;57.164;-2.120;2023-03-17T09:04:01;1.48;;;0.20;;
22549;SDS011;11441;57.164;-2.120;2023-03-17T09:06:28;0.65;;;0.20;;
22549;SDS011;11441;57.164;-2.120;2023-03-17T09:12:01;0.25;;;0.10;;
22549;SDS011;11441;57.164;-2.120;2023-03-17T09:14:47;0.68;;;0.20;;
22549;SDS011;11441;57.164;-2.120;2023-03-17T09:20:00;0.20;;;0.17;;
22549;SDS011;11441;57.164;-2.120;2023-03-17T09:22:27;2.55;;;0.20;;
22549;SDS011;11441;57.164;-2.120;2023-03-17T09:24:54;0.95;;;0.20;;
22549;SDS011;11441;57.164;-2.120;2023-03-17T09:27:21;0.50;;;0.10;;
22549;SDS011;11441;57.164;-2.120;2023-03-17T09:30:06;1.45;;;0.20;;
22549;SDS011;11441;57.164;-2.120;2023-03-17T09:32:36;0.88;;;0.40;;
22549;SDS011;11441;57.164;-2.120;2023-03-17T09:35:02;0.45;;;0.20;;
22549;SDS011;11441;57.164;-2.120;2023-03-17T09:37:30;2.05;;;0.30;;
22549;SDS011;11441;57.164;-2.120;2023-03-17T09:39:58;0.13;;;0.10;;
22549;SDS011;11441;57.164;-2.120;2023-03-17T09:45:33;0.85;;;0.20;;
22549;SDS011;11441;57.164;-2.120;2023-03-17T09:51:01;1.63;;;0.25;;
22549;SDS011;11441;57.164;-2.120;2023-03-17T09:53:35;0.47;;;0.25;;
22549;SDS011;11441;57.164;-2.120;2023-03-17T09:56:12;0.73;;;0.30;;
22549;SDS011;11441;57.164;-2.120;2023-03-17T09:58:44;0.65;;;0.20;;
22549;SDS011;11441;57.164;-2.120;2023-03-17T10:01:16;0.20;;;0.17;;
22549;SDS011;11441;57.164;-2.120;2023-03-17T10:03:44;0.25;;;0.10;;
22549;SDS011;11441;57.164;-2.120;2023-03-17T10:06:18;0.38;;;0.10;;
22549;SDS011;11441;57.164;-2.120;2023-03-17T10:08:53;0.43;;;0.20;;
22549;SDS011;11441;57.164;-2.120;2023-03-17T10:11:32;0.00;;;0.00;;
22549;SDS011;11441;57.164;-2.120;2023-03-17T10:16:59;0.13;;;0.10;;
22549;SDS011;11441;57.164;-2.120;2023-03-17T10:19:34;0.75;;;0.10;;
22549;SDS011;11441;57.164;-2.120;2023-03-17T10:24:46;0.28;;;0.10;;
22549;SDS011;11441;57.164;-2.120;2023-03-17T10:27:18;0.82;;;0.20;;
22549;SDS011;11441;57.164;-2.120;2023-03-17T10:29:45;0.10;;;0.10;;
22549;SDS011;11441;57.164;-2.120;2023-03-17T10:32:14;0.10;;;0.10;;
22549;SDS011;11441;57.164;-2.120;2023-03-17T10:34:41;0.20;;;0.20;;
22549;SDS011;11441;57.164;-2.120;2023-03-17T10:37:13;0.50;;;0.30;;
22549;SDS011;11441;57.164;-2.120;2023-03-17T10:39:46;2.05;;;0.20;;
22549;SDS011;11441;57.164;-2.120;2023-03-17T10:42:23;0.85;;;0.10;;
22549;SDS011;11441;57.164;-2.120;2023-03-17T10:44:53;0.47;;;0.20;;
22549;SDS011;11441;57.164;-2.120;2023-03-17T10:47:29;0.10;;;0.10;;
22549;SDS011;11441;57.164;-2.120;2023-03-17T10:50:21;0.25;;;0.10;;
22549;SDS011;11441;57.164;-2.120;2023-03-17T10:52:51;0.30;;;0.10;;
22549;SDS011;11441;57.164;-2.120;2023-03-17T10:55:27;0.40;;;0.20;;
22549;SDS011;11441;57.164;-2.120;2023-03-17T10:58:00;0.28;;;0.20;;
22549;SDS011;11441;57.164;-2.120;2023-03-17T11:00:30;0.63;;;0.10;;
22549;SDS011;11441;57.164;-2.120;2023-03-17T11:03:20;0.32;;;0.20;;
22549;SDS011;11441;57.164;-2.120;2023-03-17T11:05:53;0.10;;;0.10;;
22549;SDS011;11441;57.164;-2.120;2023-03-17T11:08:23;0.10;;;0.10;;
22549;SDS011;11441;57.164;-2.120;2023-03-17T11:10:54;0.45;;;0.10;;
22549;SDS011;11441;57.164;-2.120;2023-03-17T11:13:40;0.30;;;0.10;;
22549;SDS011;11441;57.164;-2.120;2023-03-17T11:16:09;0.60;;;0.10;;
22549;SDS011;11441;57.164;-2.120;2023-03-17T11:18:53;0.65;;;0.20;;
22549;SDS011;11441;57.164;-2.120;2023-03-17T11:21:28;4.50;;;0.20;;
22549;SDS011;11441;57.164;-2.120;2023-03-17T11:24:05;4.88;;;0.30;;
22549;SDS011;11441;57.164;-2.120;2023-03-17T11:31:57;0.10;;;0.10;;
22549;SDS011;11441;57.164;-2.120;2023-03-17T11:40:26;1.50;;;0.20;;
22549;SDS011;11441;57.164;-2.120;2023-03-17T11:48:31;0.15;;;0.10;;
22549;SDS011;11441;57.164;-2.120;2023-03-17T11:54:13;0.55;;;0.10;;
22549;SDS011;11441;57.164;-2.120;2023-03-17T11:57:07;3.38;;;0.20;;
22549;SDS011;11441;57.164;-2.120;2023-03-17T11:59:43;0.10;;;0.10;;
22549;SDS011;11441;57.164;-2.120;2023-03-17T12:02:26;0.20;;;0.10;;
22549;SDS011;11441;57.164;-2.120;2023-03-17T12:04:59;0.30;;;0.10;;
22549;SDS011;11441;57.164;-2.120;2023-03-17T12:07:32;0.00;;;0.00;;
22549;SDS011;11441;57.164;-2.120;2023-03-17T12:13:02;0.63;;;0.10;;
22549;SDS011;11441;57.164;-2.120;2023-03-17T12:15:37;0.22;;;0.10;;
22549;SDS011;11441;57.164;-2.120;2023-03-17T12:18:10;0.17;;;0.10;;
22549;SDS011;11441;57.164;-2.120;2023-03-17T12:26:11;0.30;;;0.20;;
22549;SDS011;11441;57.164;-2.120;2023-03-17T12:28:48;0.28;;;0.13;;
22549;SDS011;11441;57.164;-2.120;2023-03-17T12:31:24;0.10;;;0.10;;
22549;SDS011;11441;57.164;-2.120;2023-03-17T12:34:01;0.52;;;0.10;;
22549;SDS011;11441;57.164;-2.120;2023-03-17T12:36:33;0.38;;;0.10;;
22549;SDS011;11441;57.164;-2.120;2023-03-17T12:39:01;0.90;;;0.20;;
22549;SDS011;11441;57.164;-2.120;2023-03-17T12:47:11;0.20;;;0.10;;
22549;SDS011;11441;57.164;-2.120;2023-03-17T12:50:03;0.82;;;0.20;;
22549;SDS011;11441;57.164;-2.120;2023-03-17T12:55:59;0.45;;;0.20;;
22549;SDS011;11441;57.164;-2.120;2023-03-17T12:58:42;0.43;;;0.20;;
22549;SDS011;11441;57.164;-2.120;2023-03-17T13:01:23;0.85;;;0.30;;
22549;SDS011;11441;57.164;-2.120;2023-03-17T13:06:44;0.52;;;0.20;;
22549;SDS011;11441;57.164;-2.120;2023-03-17T13:17:51;0.25;;;0.22;;
22549;SDS011;11441;57.164;-2.120;2023-03-17T13:20:51;4.50;;;3.85;;
22549;SDS011;11441;57.164;-2.120;2023-03-17T13:23:39;4.32;;;1.75;;
22549;SDS011;11441;57.164;-2.120;2023-03-17T13:26:14;0.93;;;0.40;;
22549;SDS011;11441;57.164;-2.120;2023-03-17T13:28:49;0.70;;;0.28;;
22549;SDS011;11441;57.164;-2.120;2023-03-17T13:33:53;0.82;;;0.20;;
22549;SDS011;11441;57.164;-2.120;2023-03-17T13:45:03;0.35;;;0.10;;
22549;SDS011;11441;57.164;-2.120;2023-03-17T13:47:42;0.90;;;0.30;;
22549;SDS011;11441;57.164;-2.120;2023-03-17T13:55:36;0.77;;;0.17;;
22549;SDS011;11441;57.164;-2.120;2023-03-17T14:00:35;1.35;;;0.30;;
22549;SDS011;11441;57.164;-2.120;2023-03-17T14:05:38;1.08;;;0.20;;
22549;SDS011;11441;57.164;-2.120;2023-03-17T14:08:36;1.63;;;0.20;;
22549;SDS011;11441;57.164;-2.120;2023-03-17T14:11:27;1.45;;;0.20;;
22549;SDS011;11441;57.164;-2.120;2023-03-17T14:16:43;1.40;;;0.20;;
22549;SDS011;11441;57.164;-2.120;2023-03-17T14:19:59;0.45;;;0.15;;
22549;SDS011;11441;57.164;-2.120;2023-03-17T14:22:52;0.55;;;0.20;;
22549;SDS011;11441;57.164;-2.120;2023-03-17T14:25:43;0.80;;;0.35;;
22549;SDS011;11441;57.164;-2.120;2023-03-17T14:28:11;0.55;;;0.15;;
22549;SDS011;11441;57.164;-2.120;2023-03-17T14:33:45;0.73;;;0.20;;
22549;SDS011;11441;57.164;-2.120;2023-03-17T14:36:12;0.52;;;0.25;;
22549;SDS011;11441;57.164;-2.120;2023-03-17T14:38:45;0.80;;;0.20;;
22549;SDS011;11441;57.164;-2.120;2023-03-17T14:43:46;1.30;;;0.10;;
22549;SDS011;11441;57.164;-2.120;2023-03-17T14:46:20;1.67;;;0.20;;
22549;SDS011;11441;57.164;-2.120;2023-03-17T14:48:50;0.43;;;0.17;;
22549;SDS011;11441;57.164;-2.120;2023-03-17T14:51:29;0.68;;;0.20;;
22549;SDS011;11441;57.164;-2.120;2023-03-17T14:53:59;0.32;;;0.30;;
22549;SDS011;11441;57.164;-2.120;2023-03-17T14:56:36;0.60;;;0.20;;
22549;SDS011;11441;57.164;-2.120;2023-03-17T14:59:07;0.65;;;0.20;;
22549;SDS011;11441;57.164;-2.120;2023-03-17T15:01:54;2.22;;;0.20;;
22549;SDS011;11441;57.164;-2.120;2023-03-17T15:04:24;0.22;;;0.10;;
22549;SDS011;11441;57.164;-2.120;2023-03-17T15:06:54;0.47;;;0.13;;
22549;SDS011;11441;57.164;-2.120;2023-03-17T15:09:26;1.13;;;0.40;;
22549;SDS011;11441;57.164;-2.120;2023-03-17T15:12:20;1.33;;;0.32;;
22549;SDS011;11441;57.164;-2.120;2023-03-17T15:14:49;1.95;;;0.13;;
22549;SDS011;11441;57.164;-2.120;2023-03-17T15:17:20;2.10;;;0.17;;
22549;SDS011;11441;57.164;-2.120;2023-03-17T15:19:52;1.35;;;0.10;;
22549;SDS011;11441;57.164;-2.120;2023-03-17T15:22:24;0.20;;;0.20;;
22549;SDS011;11441;57.164;-2.120;2023-03-17T15:25:15;0.35;;;0.20;;
22549;SDS011;11441;57.164;-2.120;2023-03-17T15:27:44;0.35;;;0.20;;
22549;SDS011;11441;57.164;-2.120;2023-03-17T15:30:12;0.52;;;0.20;;
22549;SDS011;11441;57.164;-2.120;2023-03-17T15:32:40;4.35;;;0.22;;
22549;SDS011;11441;57.164;-2.120;2023-03-17T15:35:09;1.40;;;0.20;;
22549;SDS011;11441;57.164;-2.120;2023-03-17T15:37:37;1.20;;;0.30;;
22549;SDS011;11441;57.164;-2.120;2023-03-17T15:40:04;1.42;;;0.20;;
22549;SDS011;11441;57.164;-2.120;2023-03-17T15:42:33;1.55;;;0.30;;
22549;SDS011;11441;57.164;-2.120;2023-03-17T15:45:01;2.42;;;0.20;;
22549;SDS011;11441;57.164;-2.120;2023-03-17T15:47:33;0.28;;;0.20;;
22549;SDS011;11441;57.164;-2.120;2023-03-17T15:52:41;2.42;;;0.22;;
22549;SDS011;11441;57.164;-2.120;2023-03-17T15:55:15;0.52;;;0.20;;
22549;SDS011;11441;57.164;-2.120;2023-03-17T15:57:46;1.38;;;0.30;;
22549;SDS011;11441;57.164;-2.120;2023-03-17T16:00:21;0.82;;;0.40;;
22549;SDS011;11441;57.164;-2.120;2023-03-17T16:02:52;0.73;;;0.30;;
22549;SDS011;11441;57.164;-2.120;2023-03-17T16:05:23;0.40;;;0.32;;
22549;SDS011;11441;57.164;-2.120;2023-03-17T16:07:56;0.68;;;0.20;;
22549;SDS011;11441;57.164;-2.120;2023-03-17T16:10:24;0.22;;;0.13;;
22549;SDS011;11441;57.164;-2.120;2023-03-17T16:12:52;0.75;;;0.30;;
22549;SDS011;11441;57.164;-2.120;2023-03-17T16:15:37;1.75;;;0.20;;
22549;SDS011;11441;57.164;-2.120;2023-03-17T16:18:09;1.35;;;0.50;;
22549;SDS011;11441;57.164;-2.120;2023-03-17T16:20:40;1.60;;;0.40;;
22549;SDS011;11441;57.164;-2.120;2023-03-17T16:23:16;1.10;;;0.20;;
22549;SDS011;11441;57.164;-2.120;2023-03-17T16:25:44;2.47;;;0.50;;
22549;SDS011;11441;57.164;-2.120;2023-03-17T16:28:15;4.10;;;0.70;;
22549;SDS011;11441;57.164;-2.120;2023-03-17T16:30:45;4.03;;;0.73;;
22549;SDS011;11441;57.164;-2.120;2023-03-17T16:35:44;2.47;;;0.85;;
22549;SDS011;11441;57.164;-2.120;2023-03-17T16:38:15;4.07;;;0.55;;
22549;SDS011;11441;57.164;-2.120;2023-03-17T16:40:47;14.02;;;3.83;;
22549;SDS011;11441;57.164;-2.120;2023-03-17T16:43:35;19.23;;;4.68;;
22549;SDS011;11441;57.164;-2.120;2023-03-17T16:46:04;19.55;;;4.15;;
22549;SDS011;11441;57.164;-2.120;2023-03-17T16:48:32;11.20;;;2.92;;
22549;SDS011;11441;57.164;-2.120;2023-03-17T16:50:59;9.20;;;2.58;;
22549;SDS011;11441;57.164;-2.120;2023-03-17T16:53:26;9.93;;;2.97;;
22549;SDS011;11441;57.164;-2.120;2023-03-17T16:55:53;12.93;;;3.30;;
22549;SDS011;11441;57.164;-2.120;2023-03-17T16:58:22;15.57;;;3.25;;
22549;SDS011;11441;57.164;-2.120;2023-03-17T17:00:52;16.83;;;3.63;;
22549;SDS011;11441;57.164;-2.120;2023-03-17T17:03:22;14.07;;;2.88;;
22549;SDS011;11441;57.164;-2.120;2023-03-17T17:05:49;11.52;;;3.70;;